Aviation Digital Data Service (ADDS)

Output produced by METARs form (0910 UTC 23 July 2019)
found at http://www.aviationweather.gov/metar/data/
 
Forecast for: MYGF (FREEPORT INTL A , BS)
Text: MYGF 230400Z 2306/2406 10012KT 6000 +TSRA BKN090CB OVC035 FM 231800 18015KT 9999 SHRA FEW015CB SCT018 BKN040
Forecast period: 0600 to 1800 UTC 23 July 2019
Forecast type: FROM: standard forecast or significant change
Winds: from the E (100 degrees) at 14 MPH (12 knots; 6.2 m/s)
Visibility: 4 miles (6 km)
Ceiling: 3500 feet AGL
Clouds: overcast cloud deck at 3500 feet AGL
broken clouds at 9000 feet AGL
Weather: +TSRA  (heavy rain associated with thunderstorm(s))
Text:
Forecast period: 1800 UTC 23 July 2019 to 0600 UTC 24 July 2019
Forecast type: FROM: standard forecast or significant change
Winds: from the S (180 degrees) at 17 MPH (15 knots; 7.7 m/s)
Visibility: 6 or more miles 10+ km)
Ceiling: 4000 feet AGL
Clouds: few clouds at 1500 feet AGL
scattered clouds at 1800 feet AGL
broken clouds at 4000 feet AGL
Weather: SHRA  (rain showers)